Time,TemperatureF,DewpointF,PressureIn,WindDirection,WindDirectionDegrees,WindSpeedMPH,WindSpeedGustMPH,Humidity,HourlyPrecipIn,Conditions,Clouds,dailyrainin,SoftwareType,DateUTC
2017-05-28 00:03:00,59.5,55.0,29.89,NW,316,2.0,3.0,85,0.00,,,0.00,meteobridge,2017-05-28 05:03:00,
2017-05-28 00:08:00,59.5,54.7,29.89,NW,325,0.0,5.0,84,0.00,,,0.00,meteobridge,2017-05-28 05:08:00,
2017-05-28 00:13:00,59.5,54.7,29.90,WNW,295,2.9,4.0,84,0.00,,,0.00,meteobridge,2017-05-28 05:13:00,
2017-05-28 00:18:00,59.4,54.5,29.90,NNW,348,2.9,4.0,84,0.00,,,0.00,meteobridge,2017-05-28 05:18:00,
2017-05-28 00:23:00,59.4,54.5,29.90,West,259,2.0,6.0,84,0.00,,,0.00,meteobridge,2017-05-28 05:23:00,
2017-05-28 00:28:00,59.7,54.1,29.90,NNW,337,0.9,3.0,82,0.00,,,0.00,meteobridge,2017-05-28 05:28:00,
2017-05-28 00:34:00,59.9,54.3,29.90,WNW,297,0.9,5.0,82,0.00,,,0.00,meteobridge,2017-05-28 05:34:00,
2017-05-28 00:39:00,59.7,54.0,29.90,NNW,327,0.9,5.0,81,0.00,,,0.00,meteobridge,2017-05-28 05:39:00,
2017-05-28 00:44:00,59.7,54.0,29.89,WNW,282,2.9,5.0,81,0.00,,,0.00,meteobridge,2017-05-28 05:44:00,
2017-05-28 00:49:00,59.5,53.8,29.89,NNW,335,2.0,5.0,81,0.00,,,0.00,meteobridge,2017-05-28 05:49:00,
2017-05-28 00:54:00,59.5,53.8,29.89,NW,310,2.9,4.0,81,0.00,,,0.00,meteobridge,2017-05-28 05:54:00,
2017-05-28 00:59:00,59.5,53.4,29.89,WNW,293,2.9,5.0,80,0.00,,,0.00,meteobridge,2017-05-28 05:59:00,
2017-05-28 01:04:00,59.4,53.6,29.89,WNW,291,0.9,3.0,81,0.00,,,0.00,meteobridge,2017-05-28 06:04:00,
2017-05-28 01:09:00,59.2,53.4,29.89,NW,318,0.0,4.0,81,0.00,,,0.00,meteobridge,2017-05-28 06:09:00,
2017-05-28 01:14:00,58.8,53.1,29.89,North,9,2.9,3.0,81,0.00,,,0.00,meteobridge,2017-05-28 06:14:00,
2017-05-28 01:19:00,58.6,53.2,29.88,NW,320,2.9,4.0,82,0.00,,,0.00,meteobridge,2017-05-28 06:19:00,
2017-05-28 01:24:00,58.3,52.9,29.88,NNW,330,2.0,3.0,82,0.00,,,0.00,meteobridge,2017-05-28 06:24:00,
2017-05-28 01:29:00,57.9,52.7,29.87,WNW,284,0.0,2.0,83,0.00,,,0.00,meteobridge,2017-05-28 06:29:00,
2017-05-28 01:34:00,57.7,52.7,29.87,NW,314,0.9,2.0,83,0.00,,,0.00,meteobridge,2017-05-28 06:34:00,
2017-05-28 01:39:00,57.6,52.7,29.87,WNW,293,0.9,2.0,84,0.00,,,0.00,meteobridge,2017-05-28 06:39:00,
2017-05-28 01:44:00,57.4,52.5,29.87,WNW,293,0.0,1.0,84,0.00,,,0.00,meteobridge,2017-05-28 06:44:00,
2017-05-28 01:49:00,56.8,52.3,29.88,WNW,294,0.0,0.0,85,0.00,,,0.00,meteobridge,2017-05-28 06:49:00,
2017-05-28 01:54:00,56.5,52.0,29.88,WNW,293,0.0,0.0,85,0.00,,,0.00,meteobridge,2017-05-28 06:54:00,
2017-05-28 01:59:00,56.1,52.0,29.88,WNW,293,0.0,0.0,86,0.00,,,0.00,meteobridge,2017-05-28 06:59:00,
2017-05-28 02:04:00,55.6,51.4,29.88,WNW,293,0.0,0.0,86,0.00,,,0.00,meteobridge,2017-05-28 07:04:00,
2017-05-28 02:09:00,54.9,51.1,29.89,WNW,294,0.9,1.0,87,0.00,,,0.00,meteobridge,2017-05-28 07:09:00,
2017-05-28 02:14:00,54.3,50.9,29.89,WNW,293,0.9,1.0,88,0.00,,,0.00,meteobridge,2017-05-28 07:14:00,
2017-05-28 02:19:00,54.0,50.5,29.89,WNW,293,0.0,0.0,88,0.00,,,0.00,meteobridge,2017-05-28 07:19:00,
2017-05-28 02:24:00,53.4,50.0,29.89,WNW,293,0.0,0.0,88,0.00,,,0.00,meteobridge,2017-05-28 07:24:00,
2017-05-28 02:29:00,53.1,49.8,29.89,WNW,294,0.9,2.0,89,0.00,,,0.00,meteobridge,2017-05-28 07:29:00,
2017-05-28 02:34:00,52.9,50.0,29.89,WNW,294,0.0,1.0,90,0.00,,,0.00,meteobridge,2017-05-28 07:34:00,
2017-05-28 02:39:00,52.5,49.6,29.90,WNW,294,0.9,1.0,90,0.00,,,0.00,meteobridge,2017-05-28 07:39:00,
2017-05-28 02:44:00,52.5,50.0,29.90,WNW,293,0.9,1.0,91,0.00,,,0.00,meteobridge,2017-05-28 07:44:00,
2017-05-28 02:49:00,52.5,50.0,29.89,WNW,293,0.9,1.0,91,0.00,,,0.00,meteobridge,2017-05-28 07:49:00,
2017-05-28 02:54:00,52.5,50.0,29.90,WNW,293,0.9,2.0,91,0.00,,,0.00,meteobridge,2017-05-28 07:54:00,
2017-05-28 02:59:00,52.2,49.3,29.89,WNW,293,2.0,2.0,90,0.00,,,0.00,meteobridge,2017-05-28 07:59:00,
2017-05-28 03:04:00,51.6,49.1,29.89,WNW,293,0.0,2.0,91,0.00,,,0.00,meteobridge,2017-05-28 08:04:00,
2017-05-28 03:09:00,51.1,48.6,29.89,WNW,293,0.9,1.0,91,0.00,,,0.00,meteobridge,2017-05-28 08:09:00,
2017-05-28 03:15:00,50.7,48.2,29.89,WNW,293,0.9,1.0,91,0.00,,,0.00,meteobridge,2017-05-28 08:15:00,
2017-05-28 03:20:00,50.5,48.4,29.88,WNW,293,0.0,0.0,92,0.00,,,0.00,meteobridge,2017-05-28 08:20:00,
2017-05-28 03:25:00,50.4,48.2,29.88,WNW,293,0.0,0.0,92,0.00,,,0.00,meteobridge,2017-05-28 08:25:00,
2017-05-28 03:30:00,50.5,48.6,29.88,WNW,293,0.9,1.0,93,0.00,,,0.00,meteobridge,2017-05-28 08:30:00,
2017-05-28 03:35:00,50.5,48.6,29.88,SSE,159,2.0,2.0,93,0.00,,,0.00,meteobridge,2017-05-28 08:35:00,
2017-05-28 03:40:00,50.4,48.2,29.87,South,184,2.0,3.0,92,0.00,,,0.00,meteobridge,2017-05-28 08:40:00,
2017-05-28 03:45:00,50.0,47.8,29.87,South,188,0.0,1.0,92,0.00,,,0.00,meteobridge,2017-05-28 08:45:00,
2017-05-28 03:50:00,50.5,48.6,29.87,SW,224,0.0,1.0,93,0.00,,,0.00,meteobridge,2017-05-28 08:50:00,
2017-05-28 03:55:00,51.1,49.1,29.87,West,266,0.9,1.0,93,0.00,,,0.00,meteobridge,2017-05-28 08:55:00,
2017-05-28 04:00:00,51.3,49.3,29.87,West,267,0.9,1.0,93,0.00,,,0.00,meteobridge,2017-05-28 09:00:00,
2017-05-28 04:05:00,51.3,49.1,29.86,West,266,0.0,1.0,92,0.00,,,0.00,meteobridge,2017-05-28 09:05:00,
2017-05-28 04:07:00,51.3,49.1,29.86,West,266,0.0,1.0,92,0.00,,,0.00,meteobridge,2017-05-28 09:07:00,
2017-05-28 04:12:00,51.4,49.3,29.86,West,280,0.0,2.0,92,0.00,,,0.00,meteobridge,2017-05-28 09:12:00,
2017-05-28 04:17:00,51.4,49.3,29.86,West,274,2.0,2.0,92,0.00,,,0.00,meteobridge,2017-05-28 09:17:00,
2017-05-28 04:22:00,51.3,49.1,29.86,West,277,2.0,3.0,92,0.00,,,0.00,meteobridge,2017-05-28 09:22:00,
2017-05-28 04:27:00,51.1,48.9,29.86,WNW,288,0.9,2.0,92,0.00,,,0.00,meteobridge,2017-05-28 09:27:00,
2017-05-28 04:32:00,50.9,48.7,29.86,WNW,285,2.0,2.0,92,0.00,,,0.00,meteobridge,2017-05-28 09:32:00,
2017-05-28 04:37:00,51.1,48.9,29.85,West,274,2.0,3.0,92,0.00,,,0.00,meteobridge,2017-05-28 09:37:00,
2017-05-28 04:42:00,51.3,49.1,29.85,West,276,0.9,2.0,92,0.00,,,0.00,meteobridge,2017-05-28 09:42:00,
2017-05-28 04:47:00,51.1,48.9,29.85,West,276,2.0,2.0,92,0.00,,,0.00,meteobridge,2017-05-28 09:47:00,
2017-05-28 04:52:00,50.9,48.7,29.85,West,276,0.9,2.0,92,0.00,,,0.00,meteobridge,2017-05-28 09:52:00,
2017-05-28 04:57:00,51.1,48.9,29.85,West,276,0.0,1.0,92,0.00,,,0.00,meteobridge,2017-05-28 09:57:00,
2017-05-28 05:02:00,51.1,48.9,29.85,West,276,0.0,1.0,92,0.00,,,0.00,meteobridge,2017-05-28 10:02:00,
2017-05-28 05:07:00,51.3,49.1,29.85,West,276,0.9,1.0,92,0.00,,,0.00,meteobridge,2017-05-28 10:07:00,
2017-05-28 05:12:00,51.1,48.9,29.85,West,276,0.0,1.0,92,0.00,,,0.00,meteobridge,2017-05-28 10:12:00,
2017-05-28 05:17:00,50.7,48.6,29.85,West,276,0.0,1.0,92,0.00,,,0.00,meteobridge,2017-05-28 10:17:00,
2017-05-28 05:22:00,50.4,48.2,29.85,West,276,0.0,1.0,92,0.00,,,0.00,meteobridge,2017-05-28 10:22:00,
2017-05-28 05:28:00,50.4,48.2,29.85,West,276,0.9,1.0,92,0.00,,,0.00,meteobridge,2017-05-28 10:28:00,
2017-05-28 05:33:00,50.2,48.0,29.85,West,276,0.9,2.0,92,0.00,,,0.00,meteobridge,2017-05-28 10:33:00,
2017-05-28 05:38:00,50.2,48.0,29.84,West,276,0.9,1.0,92,0.00,,,0.00,meteobridge,2017-05-28 10:38:00,
2017-05-28 05:43:00,50.2,48.0,29.85,West,276,0.0,0.0,92,0.00,,,0.00,meteobridge,2017-05-28 10:43:00,
2017-05-28 05:48:00,50.0,47.8,29.85,West,276,0.0,0.0,92,0.00,,,0.00,meteobridge,2017-05-28 10:48:00,
2017-05-28 05:53:00,49.6,47.5,29.85,West,276,0.9,1.0,92,0.00,,,0.00,meteobridge,2017-05-28 10:53:00,
2017-05-28 05:58:00,49.5,47.3,29.85,SSE,149,0.9,2.0,92,0.00,,,0.00,meteobridge,2017-05-28 10:58:00,
2017-05-28 06:03:00,49.3,47.1,29.85,SSE,147,0.0,0.0,92,0.00,,,0.00,meteobridge,2017-05-28 11:03:00,
2017-05-28 06:08:00,48.7,46.6,29.85,SSE,148,0.0,0.0,92,0.00,,,0.00,meteobridge,2017-05-28 11:08:00,
2017-05-28 06:13:00,48.4,46.2,29.86,SSE,148,0.0,0.0,92,0.00,,,0.00,meteobridge,2017-05-28 11:13:00,
2017-05-28 06:18:00,48.0,45.9,29.85,SSE,148,0.0,0.0,92,0.00,,,0.00,meteobridge,2017-05-28 11:18:00,
2017-05-28 06:23:00,48.4,46.2,29.85,SSE,147,0.0,1.0,92,0.00,,,0.00,meteobridge,2017-05-28 11:23:00,
2017-05-28 06:28:00,48.9,46.8,29.85,SSW,200,0.0,1.0,92,0.00,,,0.00,meteobridge,2017-05-28 11:28:00,
2017-05-28 06:33:00,49.8,47.7,29.85,West,263,0.9,1.0,92,0.00,,,0.00,meteobridge,2017-05-28 11:33:00,
2017-05-28 06:38:00,50.7,48.6,29.85,West,266,2.0,2.0,92,0.00,,,0.00,meteobridge,2017-05-28 11:38:00,
2017-05-28 06:43:00,51.4,49.3,29.85,West,278,2.0,3.0,92,0.00,,,0.00,meteobridge,2017-05-28 11:43:00,
2017-05-28 06:48:00,52.2,49.8,29.85,West,278,0.9,2.0,92,0.00,,,0.00,meteobridge,2017-05-28 11:48:00,
2017-05-28 06:53:00,52.7,50.4,29.85,WNW,291,2.0,3.0,92,0.00,,,0.00,meteobridge,2017-05-28 11:53:00,
2017-05-28 06:58:00,53.4,50.9,29.86,West,274,2.0,3.0,91,0.00,,,0.00,meteobridge,2017-05-28 11:58:00,
2017-05-28 07:03:00,54.1,51.6,29.86,NW,305,2.9,4.0,91,0.00,,,0.00,meteobridge,2017-05-28 12:03:00,
2017-05-28 07:08:00,54.7,51.8,29.86,WNW,295,2.9,5.0,90,0.00,,,0.00,meteobridge,2017-05-28 12:08:00,
2017-05-28 07:13:00,55.2,52.0,29.86,NW,305,2.9,4.0,89,0.00,,,0.00,meteobridge,2017-05-28 12:13:00,
2017-05-28 07:18:00,55.8,52.3,29.86,NW,322,2.9,7.0,88,0.00,,,0.00,meteobridge,2017-05-28 12:18:00,
2017-05-28 07:23:00,56.3,52.5,29.87,WNW,298,2.9,5.0,87,0.00,,,0.00,meteobridge,2017-05-28 12:23:00,
2017-05-28 07:28:00,56.8,53.1,29.87,NW,306,0.9,7.0,87,0.00,,,0.00,meteobridge,2017-05-28 12:28:00,
2017-05-28 07:33:00,57.4,53.2,29.87,NW,308,0.9,4.0,86,0.00,,,0.00,meteobridge,2017-05-28 12:33:00,
2017-05-28 07:38:00,57.9,53.8,29.87,WNW,284,2.9,3.0,86,0.00,,,0.00,meteobridge,2017-05-28 12:38:00,
2017-05-28 07:43:00,58.6,53.8,29.87,NNW,335,2.9,3.0,84,0.00,,,0.00,meteobridge,2017-05-28 12:43:00,
2017-05-28 07:48:00,59.2,53.6,29.88,NW,319,0.9,4.0,82,0.00,,,0.00,meteobridge,2017-05-28 12:48:00,
2017-05-28 07:53:00,59.5,54.0,29.88,WNW,295,4.9,5.0,82,0.00,,,0.00,meteobridge,2017-05-28 12:53:00,
2017-05-28 07:57:00,59.9,53.8,29.88,NNW,332,0.9,6.0,80,0.00,,,0.00,meteobridge,2017-05-28 12:57:00,
2017-05-28 08:02:00,60.4,54.3,29.88,WNW,297,2.9,4.0,80,0.00,,,0.00,meteobridge,2017-05-28 13:02:00,
2017-05-28 08:07:00,61.0,54.1,29.88,NNW,338,2.0,4.0,78,0.00,,,0.00,meteobridge,2017-05-28 13:07:00,
2017-05-28 08:12:00,61.5,54.3,29.88,North,358,2.9,8.0,77,0.00,,,0.00,meteobridge,2017-05-28 13:12:00,
2017-05-28 08:17:00,62.1,53.6,29.88,NNE,13,4.9,11.0,74,0.00,,,0.00,meteobridge,2017-05-28 13:17:00,
2017-05-28 08:22:00,62.6,53.4,29.88,NNW,337,4.9,12.0,72,0.00,,,0.00,meteobridge,2017-05-28 13:22:00,
2017-05-28 08:27:00,63.0,53.1,29.88,NNW,333,10.1,10.1,70,0.00,,,0.00,meteobridge,2017-05-28 13:27:00,
2017-05-28 08:32:00,63.1,53.2,29.88,NW,318,2.9,10.0,70,0.00,,,0.00,meteobridge,2017-05-28 13:32:00,
2017-05-28 08:37:00,63.7,53.2,29.88,NNW,347,8.1,9.0,69,0.00,,,0.00,meteobridge,2017-05-28 13:37:00,
2017-05-28 08:42:00,64.2,53.8,29.88,NW,305,4.0,9.0,69,0.00,,,0.00,meteobridge,2017-05-28 13:42:00,
2017-05-28 08:48:00,64.8,54.3,29.88,WNW,295,6.9,8.0,69,0.00,,,0.00,meteobridge,2017-05-28 13:48:00,
2017-05-28 08:53:00,65.1,54.0,29.88,NW,304,11.0,11.0,67,0.00,,,0.00,meteobridge,2017-05-28 13:53:00,
2017-05-28 08:58:00,65.7,53.6,29.88,North,352,6.0,11.0,65,0.00,,,0.00,meteobridge,2017-05-28 13:58:00,
2017-05-28 09:03:00,66.0,53.4,29.88,North,0,6.9,8.0,64,0.00,,,0.00,meteobridge,2017-05-28 14:03:00,
2017-05-28 09:08:00,66.4,53.4,29.88,NNW,345,2.9,8.0,63,0.00,,,0.00,meteobridge,2017-05-28 14:08:00,
2017-05-28 09:09:00,66.4,53.4,29.88,NNW,339,4.9,12.0,63,0.00,,,0.00,meteobridge,2017-05-28 14:09:00,
2017-05-28 09:14:00,66.7,52.9,29.88,North,352,6.9,11.0,61,0.00,,,0.00,meteobridge,2017-05-28 14:14:00,
2017-05-28 09:19:00,67.1,53.6,29.89,North,10,8.1,10.0,62,0.00,,,0.00,meteobridge,2017-05-28 14:19:00,
2017-05-28 09:24:00,67.5,53.1,29.89,NW,305,6.9,9.0,60,0.00,,,0.00,meteobridge,2017-05-28 14:24:00,
2017-05-28 09:29:00,67.8,54.0,29.89,NW,310,4.0,7.0,61,0.00,,,0.00,meteobridge,2017-05-28 14:29:00,
2017-05-28 09:34:00,68.4,53.4,29.89,NNW,335,6.9,8.0,59,0.00,,,0.00,meteobridge,2017-05-28 14:34:00,
2017-05-28 09:39:00,68.7,54.3,29.89,NNW,333,2.0,9.0,60,0.00,,,0.00,meteobridge,2017-05-28 14:39:00,
2017-05-28 09:44:00,69.3,53.4,29.89,NW,305,2.9,8.0,57,0.00,,,0.00,meteobridge,2017-05-28 14:44:00,
2017-05-28 09:49:00,69.4,52.5,29.89,NNW,328,4.0,9.0,55,0.00,,,0.00,meteobridge,2017-05-28 14:49:00,
2017-05-28 09:54:00,70.0,54.0,29.89,NNW,346,2.0,6.0,57,0.00,,,0.00,meteobridge,2017-05-28 14:54:00,
2017-05-28 09:59:00,70.5,53.6,29.89,NNW,348,6.0,7.0,55,0.00,,,0.00,meteobridge,2017-05-28 14:59:00,
2017-05-28 10:04:00,70.7,52.7,29.89,NW,323,4.0,8.0,53,0.00,,,0.00,meteobridge,2017-05-28 15:04:00,
2017-05-28 10:09:00,70.9,51.8,29.88,NNW,345,4.9,8.0,51,0.00,,,0.00,meteobridge,2017-05-28 15:09:00,
2017-05-28 10:14:00,70.9,53.4,29.88,North,353,2.9,8.0,54,0.00,,,0.00,meteobridge,2017-05-28 15:14:00,
2017-05-28 10:19:00,71.4,54.0,29.88,North,354,2.9,8.0,54,0.00,,,0.00,meteobridge,2017-05-28 15:19:00,
2017-05-28 10:24:00,71.6,53.1,29.88,NNW,333,2.9,9.0,52,0.00,,,0.00,meteobridge,2017-05-28 15:24:00,
2017-05-28 10:29:00,72.1,53.6,29.88,NNW,338,2.9,8.0,52,0.00,,,0.00,meteobridge,2017-05-28 15:29:00,
2017-05-28 10:34:00,72.3,53.2,29.88,WNW,295,6.0,15.0,51,0.00,,,0.00,meteobridge,2017-05-28 15:34:00,
2017-05-28 10:39:00,72.5,52.9,29.88,NNE,16,8.1,14.0,50,0.00,,,0.00,meteobridge,2017-05-28 15:39:00,
2017-05-28 10:44:00,72.7,53.4,29.89,NW,325,12.1,14.0,51,0.00,,,0.00,meteobridge,2017-05-28 15:44:00,
2017-05-28 10:49:00,72.5,53.4,29.89,North,355,15.0,16.0,51,0.00,,,0.00,meteobridge,2017-05-28 15:49:00,
2017-05-28 10:54:00,72.3,53.2,29.89,NNE,32,8.1,15.0,51,0.00,,,0.00,meteobridge,2017-05-28 15:54:00,
2017-05-28 10:59:00,72.7,52.9,29.89,NW,323,4.9,9.0,50,0.00,,,0.00,meteobridge,2017-05-28 15:59:00,
2017-05-28 11:04:00,73.2,53.4,29.89,NNW,330,6.0,12.0,50,0.00,,,0.00,meteobridge,2017-05-28 16:04:00,
2017-05-28 11:09:00,73.4,53.1,29.88,WNW,295,4.0,7.0,49,0.00,,,0.00,meteobridge,2017-05-28 16:09:00,
2017-05-28 11:14:00,73.8,54.0,29.88,WNW,285,6.0,10.0,50,0.00,,,0.00,meteobridge,2017-05-28 16:14:00,
2017-05-28 11:19:00,73.9,52.5,29.88,WNW,299,6.9,8.0,47,0.00,,,0.00,meteobridge,2017-05-28 16:19:00,
2017-05-28 11:24:00,74.1,51.4,29.88,NW,311,4.0,10.0,45,0.00,,,0.00,meteobridge,2017-05-28 16:24:00,
2017-05-28 11:29:00,75.2,52.3,29.88,NW,309,6.0,9.0,45,0.00,,,0.00,meteobridge,2017-05-28 16:29:00,
2017-05-28 11:34:00,75.4,53.2,29.88,WNW,302,4.0,8.0,46,0.00,,,0.00,meteobridge,2017-05-28 16:34:00,
2017-05-28 11:38:00,75.4,50.7,29.88,NW,316,4.9,9.0,42,0.00,,,0.00,meteobridge,2017-05-28 16:38:00,
2017-05-28 11:43:00,75.6,50.9,29.88,WNW,288,4.9,12.0,42,0.00,,,0.00,meteobridge,2017-05-28 16:43:00,
2017-05-28 11:48:00,75.7,50.4,29.88,West,263,6.0,10.0,41,0.00,,,0.00,meteobridge,2017-05-28 16:48:00,
2017-05-28 11:53:00,75.7,50.4,29.88,West,276,4.0,8.0,41,0.00,,,0.00,meteobridge,2017-05-28 16:53:00,
2017-05-28 11:58:00,75.9,49.8,29.88,West,266,2.9,7.0,40,0.00,,,0.00,meteobridge,2017-05-28 16:58:00,